Time;durP1;ratioP1;P1;durP2;ratioP2;P2;SDS_P1;SDS_P2;PMS_P1;PMS_P2;Temp;Humidity;BMP_temperature;BMP_pressure;BME280_temperature;BME280_humidity;BME280_pressure;Samples;Min_cycle;Max_cycle;Signal;HPM_P1;HPM_P2
2023/02/20 00:00:19;;;;;;;0.43;0.43;;;8.00;99.90;;;;;;5074924;28;20460;-81
2023/02/20 00:02:48;;;;;;;0.47;0.40;;;8.00;99.90;;;;;;5074594;28;20876;-81
2023/02/20 00:05:15;;;;;;;0.60;0.60;;;8.00;99.90;;;;;;5074816;28;20488;-81
2023/02/20 00:07:42;;;;;;;0.30;0.30;;;8.00;99.90;;;;;;5074734;28;20468;-81
2023/02/20 00:10:09;;;;;;;0.60;0.60;;;8.00;99.90;;;;;;5074714;28;20450;-81
2023/02/20 00:12:36;;;;;;;0.40;0.37;;;8.00;99.90;;;;;;5074630;28;20461;-81
2023/02/20 00:15:04;;;;;;;1.17;0.40;;;8.00;99.90;;;;;;5074624;28;20464;-81
2023/02/20 00:17:30;;;;;;;0.40;0.40;;;8.00;99.90;;;;;;5074498;28;20468;-81
2023/02/20 00:19:58;;;;;;;0.30;0.30;;;8.00;99.90;;;;;;5074488;28;20444;-81
2023/02/20 00:22:26;;;;;;;0.40;0.30;;;8.00;99.90;;;;;;5074450;28;20449;-81
2023/02/20 00:24:53;;;;;;;1.27;0.47;;;8.10;99.90;;;;;;5074329;28;20449;-81
2023/02/20 00:27:19;;;;;;;0.30;0.30;;;8.10;99.90;;;;;;5073981;28;20929;-81
2023/02/20 00:29:46;;;;;;;2.30;0.60;;;8.10;99.90;;;;;;5074010;28;20952;-81
2023/02/20 00:32:13;;;;;;;0.60;0.50;;;8.10;99.90;;;;;;5074036;28;20425;-81
2023/02/20 00:34:40;;;;;;;0.40;0.30;;;8.10;99.90;;;;;;5074223;28;20511;-81
2023/02/20 00:37:08;;;;;;;0.50;0.30;;;8.10;99.90;;;;;;5073786;28;20497;-80
2023/02/20 00:39:35;;;;;;;3.17;0.37;;;8.10;99.90;;;;;;5074140;28;20495;-80
2023/02/20 00:42:02;;;;;;;0.40;0.37;;;8.10;99.90;;;;;;5074189;28;20441;-81
2023/02/20 00:44:29;;;;;;;0.80;0.80;;;8.10;99.90;;;;;;5074060;28;20541;-81
2023/02/20 00:46:55;;;;;;;0.50;0.40;;;8.10;99.90;;;;;;5073649;28;21033;-80
2023/02/20 00:49:22;;;;;;;0.57;0.57;;;8.10;99.90;;;;;;5073976;28;20452;-80
2023/02/20 00:51:49;;;;;;;0.50;0.40;;;8.20;99.90;;;;;;5073931;28;20452;-81
2023/02/20 00:54:17;;;;;;;0.80;0.80;;;8.10;99.90;;;;;;5073868;28;20445;-81
2023/02/20 00:56:44;;;;;;;0.40;0.40;;;8.10;99.90;;;;;;5073681;28;20854;-81
2023/02/20 00:59:10;;;;;;;0.30;0.30;;;8.10;99.90;;;;;;5073795;28;20441;-81
2023/02/20 01:01:37;;;;;;;1.23;0.50;;;8.10;99.90;;;;;;5073843;28;20449;-81
2023/02/20 01:04:04;;;;;;;1.50;0.80;;;8.10;99.90;;;;;;5073463;28;20822;-81
2023/02/20 01:06:31;;;;;;;0.40;0.30;;;8.10;99.90;;;;;;5073620;28;20476;-81
2023/02/20 01:08:57;;;;;;;0.40;0.30;;;8.10;99.90;;;;;;5073372;28;20457;-81
2023/02/20 01:11:25;;;;;;;0.43;0.40;;;8.20;99.90;;;;;;5073667;28;20441;-80
2023/02/20 01:13:52;;;;;;;0.60;0.50;;;8.20;99.90;;;;;;5073305;28;20960;-81
2023/02/20 01:16:19;;;;;;;1.40;0.80;;;8.10;99.90;;;;;;5073434;28;20479;-81
2023/02/20 01:18:49;;;;;;;0.50;0.40;;;8.10;99.90;;;;;;5073175;28;20941;-81
2023/02/20 01:21:16;;;;;;;0.40;0.30;;;8.10;99.90;;;;;;5073112;28;20444;-81
2023/02/20 01:23:43;;;;;;;1.80;0.40;;;8.20;99.90;;;;;;5073430;28;20488;-81
2023/02/20 01:26:10;;;;;;;0.50;0.50;;;8.10;99.90;;;;;;5073380;28;20441;-81
2023/02/20 01:28:38;;;;;;;0.80;0.40;;;8.20;99.90;;;;;;5073458;28;20445;-81
2023/02/20 01:31:05;;;;;;;1.40;0.77;;;8.10;99.90;;;;;;5073401;28;20463;-81
2023/02/20 01:33:31;;;;;;;0.50;0.30;;;8.10;99.90;;;;;;5073373;28;20476;-81
2023/02/20 01:35:58;;;;;;;0.40;0.40;;;8.10;99.90;;;;;;5072966;28;21004;-81
2023/02/20 01:38:25;;;;;;;7.83;0.90;;;8.10;99.90;;;;;;5072853;28;20485;-81
2023/02/20 01:40:51;;;;;;;0.87;0.50;;;8.10;99.90;;;;;;5073277;28;20783;-81
2023/02/20 01:43:18;;;;;;;0.50;0.40;;;8.10;99.90;;;;;;5073318;28;20456;-81
2023/02/20 01:45:46;;;;;;;0.40;0.40;;;8.10;99.90;;;;;;5073009;28;20996;-81
2023/02/20 01:48:21;;;;;;;0.90;0.40;;;8.10;99.90;;;;;;5073205;28;20829;-81
2023/02/20 01:50:50;;;;;;;0.40;0.30;;;8.10;99.90;;;;;;5073227;28;20437;-81
2023/02/20 01:53:20;;;;;;;1.37;0.50;;;8.10;99.90;;;;;;5073049;28;20476;-81
2023/02/20 01:55:51;;;;;;;1.07;0.50;;;8.10;99.90;;;;;;5073089;28;20510;-81
2023/02/20 01:58:23;;;;;;;0.73;0.37;;;8.00;99.90;;;;;;5073682;28;20476;-81
2023/02/20 02:00:52;;;;;;;0.40;0.40;;;8.10;99.90;;;;;;5073125;28;20456;-81
2023/02/20 02:03:21;;;;;;;2.37;0.60;;;8.00;99.90;;;;;;5073079;28;20453;-81
2023/02/20 02:05:53;;;;;;;1.37;0.67;;;8.00;99.90;;;;;;5073073;28;20457;-81
2023/02/20 02:08:22;;;;;;;0.33;0.33;;;8.00;99.90;;;;;;5072681;28;21012;-81
2023/02/20 02:10:54;;;;;;;0.40;0.40;;;8.00;99.90;;;;;;5072713;28;20506;-80
2023/02/20 02:13:21;;;;;;;0.47;0.40;;;8.00;99.90;;;;;;5073041;28;20426;-81
2023/02/20 02:15:52;;;;;;;0.73;0.73;;;8.00;99.90;;;;;;5072529;28;20452;-81
2023/02/20 02:18:55;;;;;;;0.40;0.30;;;7.90;99.90;;;;;;5072576;28;21007;-81
2023/02/20 02:21:57;;;;;;;0.60;0.40;;;8.00;99.90;;;;;;5072932;28;20445;-81
2023/02/20 02:24:49;;;;;;;0.37;0.33;;;8.00;99.90;;;;;;5070163;28;20940;-81
2023/02/20 02:27:49;;;;;;;1.40;0.50;;;8.00;99.90;;;;;;5072799;28;20468;-81
2023/02/20 02:31:15;;;;;;;0.40;0.40;;;8.00;99.90;;;;;;5071139;28;20457;-81
2023/02/20 02:34:05;;;;;;;0.60;0.30;;;7.90;99.90;;;;;;5012652;28;20432;-81
2023/02/20 02:36:48;;;;;;;0.70;0.33;;;7.80;99.90;;;;;;5014086;28;21031;-81
2023/02/20 02:39:22;;;;;;;0.40;0.40;;;7.80;99.90;;;;;;5069407;28;20535;-81
2023/02/20 02:41:55;;;;;;;0.50;0.40;;;7.80;99.90;;;;;;5076172;28;20896;-81
2023/02/20 02:44:28;;;;;;;0.50;0.50;;;7.80;99.90;;;;;;5076084;28;20932;-81
2023/02/20 02:46:58;;;;;;;0.50;0.30;;;7.80;99.90;;;;;;5076287;28;20468;-81
2023/02/20 02:49:29;;;;;;;0.60;0.60;;;7.80;99.90;;;;;;5076329;28;20430;-81
2023/02/20 02:51:59;;;;;;;0.80;0.30;;;7.80;99.90;;;;;;5076268;28;20434;-81
2023/02/20 02:54:27;;;;;;;0.50;0.50;;;7.70;99.90;;;;;;5075913;28;20958;-81
2023/02/20 02:57:10;;;;;;;0.70;0.40;;;7.70;99.90;;;;;;5075969;28;20868;-81
2023/02/20 02:59:36;;;;;;;0.30;0.30;;;7.70;99.90;;;;;;5075932;28;20520;-81
2023/02/20 03:02:07;;;;;;;0.63;0.40;;;7.70;99.90;;;;;;5076052;28;20441;-81
2023/02/20 03:04:37;;;;;;;0.30;0.30;;;7.60;99.90;;;;;;5076897;28;20434;-81
2023/02/20 03:07:08;;;;;;;0.87;0.50;;;7.60;99.90;;;;;;5075885;28;20556;-81
2023/02/20 03:09:38;;;;;;;0.50;0.30;;;7.60;99.90;;;;;;5075695;28;20444;-81
2023/02/20 03:12:07;;;;;;;0.40;0.40;;;7.70;99.90;;;;;;5075872;28;20825;-81
2023/02/20 03:17:30;;;;;;;0.50;0.40;;;7.60;99.90;;;;;;5075393;28;20575;-81
2023/02/20 03:19:59;;;;;;;0.73;0.50;;;7.60;99.90;;;;;;5075515;28;20487;-81
2023/02/20 03:22:32;;;;;;;0.50;0.27;;;7.50;99.90;;;;;;5076470;28;20450;-81
2023/02/20 03:25:03;;;;;;;0.60;0.60;;;7.60;99.90;;;;;;5075678;28;20480;-81
2023/02/20 03:27:37;;;;;;;0.80;0.80;;;7.60;99.90;;;;;;5075489;28;20603;-81
2023/02/20 03:30:10;;;;;;;0.53;0.53;;;7.50;99.90;;;;;;5075600;28;20487;-81
2023/02/20 03:43:46;;;;;;;0.43;0.40;;;7.30;99.90;;;;;;5074927;28;20451;-81
2023/02/20 03:46:18;;;;;;;0.30;0.30;;;7.30;99.90;;;;;;5074859;28;20943;-81
2023/02/20 03:48:49;;;;;;;0.80;0.40;;;7.30;99.90;;;;;;5074925;28;20461;-81
2023/02/20 03:51:16;;;;;;;0.30;0.30;;;7.30;99.90;;;;;;5076157;28;20477;-81
2023/02/20 03:53:45;;;;;;;0.90;0.50;;;7.30;99.90;;;;;;5074993;28;20477;-81
2023/02/20 03:56:16;;;;;;;0.73;0.70;;;7.30;99.90;;;;;;5074863;28;20503;-81
2023/02/20 03:58:49;;;;;;;0.50;0.50;;;7.20;99.90;;;;;;5074992;28;20537;-81
2023/02/20 04:01:18;;;;;;;0.47;0.30;;;7.10;99.90;;;;;;5075711;28;20740;-81
2023/02/20 04:03:48;;;;;;;0.30;0.30;;;7.00;99.90;;;;;;5074865;28;20445;-81
2023/02/20 04:06:17;;;;;;;1.73;0.50;;;7.00;99.90;;;;;;5074853;28;20441;-81
2023/02/20 04:08:50;;;;;;;0.37;0.30;;;6.90;99.90;;;;;;5074804;28;20454;-81
2023/02/20 04:11:24;;;;;;;0.30;0.30;;;6.80;99.90;;;;;;5074781;28;20429;-81
2023/02/20 04:13:53;;;;;;;2.30;0.50;;;6.80;99.90;;;;;;5074421;28;20437;-81
2023/02/20 04:16:21;;;;;;;0.60;0.40;;;6.70;99.90;;;;;;5074178;28;20945;-81
2023/02/20 04:18:48;;;;;;;3.10;0.63;;;6.70;99.90;;;;;;5074212;28;20457;-81
2023/02/20 04:21:21;;;;;;;1.63;0.43;;;6.70;99.90;;;;;;5074171;28;20963;-81
2023/02/20 04:24:01;;;;;;;0.47;0.30;;;6.60;99.90;;;;;;5074491;28;20458;-82
2023/02/20 04:26:28;;;;;;;0.30;0.30;;;6.60;99.90;;;;;;5074345;28;20473;-81
2023/02/20 04:28:55;;;;;;;0.30;0.30;;;6.60;99.90;;;;;;5074395;28;20446;-81
2023/02/20 04:31:23;;;;;;;0.70;0.50;;;6.60;99.90;;;;;;5073811;28;20446;-81
2023/02/20 04:33:49;;;;;;;0.40;0.37;;;6.50;99.90;;;;;;5074210;28;20454;-81
2023/02/20 04:36:16;;;;;;;0.40;0.40;;;6.50;99.90;;;;;;5073767;28;20448;-81
2023/02/20 04:38:43;;;;;;;0.50;0.40;;;6.50;99.90;;;;;;5073622;28;20865;-81
2023/02/20 04:41:11;;;;;;;0.40;0.30;;;6.50;99.90;;;;;;5074027;28;20453;-81
2023/02/20 04:43:37;;;;;;;1.43;0.60;;;6.40;99.90;;;;;;5074023;28;20441;-81
2023/02/20 04:46:04;;;;;;;0.30;0.30;;;6.40;99.90;;;;;;5073951;28;20445;-81
2023/02/20 04:48:31;;;;;;;0.40;0.40;;;6.30;99.90;;;;;;5073817;28;20469;-81
2023/02/20 04:50:58;;;;;;;0.40;0.40;;;6.30;99.90;;;;;;5073886;28;20454;-81
2023/02/20 04:53:25;;;;;;;0.70;0.37;;;6.20;99.90;;;;;;5073690;28;20948;-80
2023/02/20 04:55:51;;;;;;;0.40;0.30;;;6.20;99.90;;;;;;5073422;28;20450;-81
2023/02/20 04:58:19;;;;;;;0.40;0.40;;;6.20;99.90;;;;;;5073925;28;20488;-81
2023/02/20 05:00:46;;;;;;;0.53;0.30;;;6.10;99.90;;;;;;5073626;28;20448;-81
2023/02/20 05:03:13;;;;;;;0.40;0.30;;;6.10;99.90;;;;;;5073339;28;20949;-81
2023/02/20 05:05:39;;;;;;;1.20;0.90;;;6.10;99.90;;;;;;5073643;28;20449;-81
2023/02/20 05:08:08;;;;;;;0.30;0.30;;;6.00;99.90;;;;;;5073497;28;20457;-81
2023/02/20 05:10:37;;;;;;;3.43;0.47;;;6.00;99.90;;;;;;5073259;28;20937;-81
2023/02/20 05:13:04;;;;;;;0.63;0.40;;;6.00;99.90;;;;;;5073337;28;20445;-81
2023/02/20 05:15:32;;;;;;;0.43;0.43;;;6.00;99.90;;;;;;5073509;28;20814;-81
2023/02/20 05:17:59;;;;;;;0.50;0.50;;;6.00;99.90;;;;;;5073355;28;20492;-81
2023/02/20 05:22:17;;;;;;;0.40;0.30;;;5.90;99.90;;;;;;5073210;28;20446;-81
2023/02/20 05:23:12;;;;;;;1.27;0.40;;;6.00;99.90;;;;;;5072932;28;20495;-81
2023/02/20 05:25:39;;;;;;;0.73;0.30;;;5.90;99.90;;;;;;5073413;28;20441;-81
2023/02/20 05:28:07;;;;;;;0.40;0.30;;;5.90;99.90;;;;;;5072997;28;20461;-81
2023/02/20 05:30:35;;;;;;;0.40;0.33;;;5.90;99.90;;;;;;5073353;28;20454;-82
2023/02/20 05:33:02;;;;;;;0.60;0.30;;;5.90;99.90;;;;;;5073286;28;20446;-81
2023/02/20 05:35:28;;;;;;;0.47;0.47;;;5.80;99.90;;;;;;5073320;28;20461;-81
2023/02/20 05:37:55;;;;;;;1.73;0.67;;;5.80;99.90;;;;;;5072714;28;20489;-81
2023/02/20 05:40:22;;;;;;;0.40;0.30;;;5.80;99.90;;;;;;5072930;28;20925;-81
2023/02/20 05:42:48;;;;;;;0.87;0.40;;;5.80;99.90;;;;;;5073219;28;20454;-81
2023/02/20 05:45:15;;;;;;;0.40;0.30;;;5.70;99.90;;;;;;5073176;28;20446;-81
2023/02/20 05:47:43;;;;;;;1.40;0.83;;;5.70;99.90;;;;;;5072696;28;20975;-81
2023/02/20 05:50:10;;;;;;;0.73;0.60;;;5.70;99.90;;;;;;5073179;28;20867;-81
2023/02/20 05:52:37;;;;;;;1.37;0.80;;;5.60;99.90;;;;;;5073073;28;20441;-81
2023/02/20 05:55:04;;;;;;;0.30;0.30;;;5.70;99.90;;;;;;5073072;28;20590;-81
2023/02/20 05:57:31;;;;;;;0.30;0.30;;;5.60;99.90;;;;;;5072945;28;20480;-82
2023/02/20 05:59:57;;;;;;;0.70;0.40;;;5.60;99.90;;;;;;5073076;28;20449;-81
2023/02/20 06:02:24;;;;;;;0.63;0.63;;;5.60;99.90;;;;;;5072714;28;20449;-81
2023/02/20 06:04:52;;;;;;;3.10;0.70;;;5.60;99.90;;;;;;5073044;28;20454;-81
2023/02/20 06:07:19;;;;;;;0.30;0.30;;;5.60;99.90;;;;;;5074338;28;20474;-81
2023/02/20 06:09:45;;;;;;;0.97;0.43;;;5.60;99.90;;;;;;5076979;28;20457;-82
2023/02/20 06:12:13;;;;;;;0.40;0.30;;;5.50;99.90;;;;;;5076990;28;20816;-81
2023/02/20 06:14:40;;;;;;;0.40;0.40;;;5.60;99.90;;;;;;5076851;28;20450;-81
2023/02/20 06:17:07;;;;;;;0.40;0.30;;;5.60;99.90;;;;;;5076748;28;20468;-81
2023/02/20 06:19:33;;;;;;;0.40;0.30;;;5.60;99.90;;;;;;5076843;28;20565;-81
2023/02/20 06:22:01;;;;;;;0.40;0.30;;;5.60;99.90;;;;;;5076377;28;20905;-81
2023/02/20 06:24:29;;;;;;;0.40;0.40;;;5.50;99.90;;;;;;5076755;28;20446;-81
2023/02/20 06:26:55;;;;;;;1.47;0.57;;;5.50;99.90;;;;;;5076594;28;20501;-81
2023/02/20 06:29:22;;;;;;;0.80;0.80;;;5.60;99.90;;;;;;5076599;28;20446;-81
2023/02/20 06:31:49;;;;;;;1.57;0.50;;;5.50;99.90;;;;;;5076557;28;20456;-81
2023/02/20 06:34:17;;;;;;;0.30;0.30;;;5.50;99.90;;;;;;5076491;28;20457;-81
2023/02/20 06:36:44;;;;;;;0.47;0.43;;;5.50;99.90;;;;;;5076223;28;20480;-81
2023/02/20 06:39:15;;;;;;;0.40;0.40;;;5.50;99.90;;;;;;5076437;28;20462;-81
2023/02/20 06:41:41;;;;;;;0.40;0.30;;;5.50;99.90;;;;;;5076398;28;20466;-81
2023/02/20 06:44:08;;;;;;;0.50;0.50;;;5.50;99.90;;;;;;5076048;28;20863;-81
2023/02/20 06:46:35;;;;;;;0.50;0.30;;;5.50;99.90;;;;;;5076130;28;20481;-81
2023/02/20 06:49:03;;;;;;;1.40;0.40;;;5.50;99.90;;;;;;5076245;28;20444;-81
2023/02/20 06:51:31;;;;;;;1.40;0.50;;;5.60;99.90;;;;;;5075902;28;20461;-81
2023/02/20 06:53:59;;;;;;;0.50;0.30;;;5.60;99.90;;;;;;5075943;28;20440;-81
2023/02/20 06:56:29;;;;;;;0.50;0.33;;;5.60;99.90;;;;;;5075909;28;20461;-81
2023/02/20 06:58:56;;;;;;;0.60;0.50;;;5.60;99.90;;;;;;5075952;28;20484;-81
2023/02/20 07:01:25;;;;;;;0.40;0.40;;;5.70;99.90;;;;;;5075630;28;20858;-81
2023/02/20 07:03:54;;;;;;;0.40;0.40;;;5.70;99.90;;;;;;5075957;28;20471;-81
2023/02/20 07:06:21;;;;;;;0.50;0.37;;;5.70;99.90;;;;;;5075846;28;20605;-81
2023/02/20 07:08:48;;;;;;;0.43;0.43;;;5.70;99.90;;;;;;5076259;28;20452;-81
2023/02/20 07:11:17;;;;;;;0.30;0.30;;;5.80;99.90;;;;;;5075572;28;20433;-81
2023/02/20 07:13:45;;;;;;;0.80;0.40;;;5.80;99.90;;;;;;5075803;28;20477;-81
2023/02/20 07:16:12;;;;;;;0.30;0.30;;;5.80;99.90;;;;;;5075734;28;20449;-81
2023/02/20 07:18:39;;;;;;;0.30;0.20;;;5.80;99.90;;;;;;5074910;28;20481;-81
2023/02/20 07:21:06;;;;;;;0.40;0.30;;;5.90;99.90;;;;;;5075721;28;20446;-81
2023/02/20 07:23:33;;;;;;;0.40;0.30;;;5.90;99.90;;;;;;5075288;28;20972;-81
2023/02/20 07:25:59;;;;;;;0.70;0.50;;;5.90;99.90;;;;;;5075610;28;20456;-82
2023/02/20 07:28:26;;;;;;;0.90;0.90;;;5.90;99.90;;;;;;5075587;28;20464;-81
2023/02/20 07:30:54;;;;;;;0.30;0.30;;;6.00;99.90;;;;;;5075559;28;20460;-81
2023/02/20 07:33:21;;;;;;;1.20;0.63;;;6.10;99.90;;;;;;5075513;28;20456;-81
2023/02/20 07:35:47;;;;;;;1.47;0.87;;;6.20;99.90;;;;;;5075468;28;20441;-81
2023/02/20 07:38:14;;;;;;;0.60;0.50;;;6.30;99.90;;;;;;5077241;28;20489;-81
2023/02/20 07:40:41;;;;;;;0.40;0.40;;;6.30;99.90;;;;;;5096517;28;20449;-82
2023/02/20 07:43:08;;;;;;;1.37;0.40;;;6.30;99.90;;;;;;5097817;28;20516;-81
2023/02/20 07:45:34;;;;;;;0.30;0.30;;;6.40;99.90;;;;;;5095087;28;20441;-82
2023/02/20 07:48:02;;;;;;;1.43;1.33;;;6.30;99.90;;;;;;5081999;28;20465;-83
2023/02/20 07:50:29;;;;;;;1.00;0.40;;;6.40;99.90;;;;;;5075237;28;20836;-83
2023/02/20 07:52:56;;;;;;;0.40;0.30;;;6.50;99.90;;;;;;5075148;28;20457;-83
2023/02/20 07:55:23;;;;;;;0.60;0.33;;;6.60;99.90;;;;;;5075119;28;20453;-83
2023/02/20 07:57:50;;;;;;;0.40;0.40;;;6.70;99.90;;;;;;5074802;28;20489;-83
2023/02/20 08:00:20;;;;;;;0.63;0.37;;;6.70;99.90;;;;;;5074905;28;20461;-83
2023/02/20 08:02:47;;;;;;;1.17;0.30;;;6.80;99.90;;;;;;5074756;28;20943;-82
2023/02/20 08:05:15;;;;;;;0.57;0.40;;;6.80;99.90;;;;;;5074895;28;20476;-83
2023/02/20 08:07:45;;;;;;;0.70;0.40;;;6.90;99.90;;;;;;5074490;28;20469;-82
2023/02/20 08:10:11;;;;;;;0.93;0.50;;;6.90;99.90;;;;;;5074818;28;20481;-82
2023/02/20 08:12:38;;;;;;;0.40;0.30;;;7.00;99.90;;;;;;5074677;28;20445;-83
2023/02/20 08:15:05;;;;;;;1.10;0.40;;;7.10;99.90;;;;;;5074653;28;20818;-82
2023/02/20 08:17:32;;;;;;;0.40;0.33;;;7.10;99.90;;;;;;5074164;28;20472;-82
2023/02/20 08:19:58;;;;;;;0.37;0.30;;;7.20;99.90;;;;;;5074540;28;20481;-82
2023/02/20 08:22:26;;;;;;;0.80;0.40;;;7.20;99.90;;;;;;5074366;28;20457;-82
2023/02/20 08:24:53;;;;;;;0.40;0.30;;;7.30;99.90;;;;;;5074178;28;20905;-82
2023/02/20 08:27:20;;;;;;;0.40;0.40;;;7.40;99.90;;;;;;5074353;28;20465;-82
2023/02/20 08:29:46;;;;;;;0.30;0.30;;;7.40;99.90;;;;;;5074194;28;20453;-82
2023/02/20 08:32:13;;;;;;;0.60;0.30;;;7.50;99.90;;;;;;5073999;28;20453;-82
2023/02/20 08:34:40;;;;;;;0.40;0.40;;;7.50;99.90;;;;;;5073998;28;20441;-83
2023/02/20 08:37:08;;;;;;;0.30;0.30;;;7.60;99.90;;;;;;5074043;28;20516;-83
2023/02/20 08:39:36;;;;;;;0.40;0.40;;;7.70;99.90;;;;;;5074082;28;20481;-82
2023/02/20 08:42:03;;;;;;;2.80;0.53;;;7.80;99.90;;;;;;5074122;28;20847;-82
2023/02/20 08:44:30;;;;;;;0.40;0.30;;;8.00;99.90;;;;;;5074097;28;20450;-83
2023/02/20 08:46:57;;;;;;;0.40;0.30;;;8.10;99.90;;;;;;5073721;28;20972;-83
2023/02/20 08:49:24;;;;;;;0.30;0.30;;;8.20;99.90;;;;;;5074045;28;20498;-83
2023/02/20 08:51:54;;;;;;;1.00;0.80;;;8.40;99.90;;;;;;5073846;28;20445;-83
2023/02/20 08:54:21;;;;;;;0.40;0.40;;;8.60;99.90;;;;;;5073999;28;20489;-82
2023/02/20 08:56:50;;;;;;;0.30;0.30;;;8.80;99.90;;;;;;5073840;28;20469;-83
2023/02/20 08:59:17;;;;;;;0.30;0.30;;;9.10;99.90;;;;;;5074477;28;20855;-83
2023/02/20 09:01:44;;;;;;;0.40;0.40;;;9.20;99.90;;;;;;5073561;28;20957;-84
2023/02/20 09:04:11;;;;;;;2.77;0.70;;;9.40;99.90;;;;;;5073793;28;20456;-82
2023/02/20 09:06:38;;;;;;;1.50;0.67;;;9.60;99.90;;;;;;5073639;28;20476;-82
2023/02/20 09:09:04;;;;;;;0.50;0.50;;;9.80;99.90;;;;;;5073628;28;20476;-82
2023/02/20 09:11:31;;;;;;;1.43;0.50;;;10.30;99.90;;;;;;5073369;28;20953;-82
2023/02/20 09:13:59;;;;;;;0.60;0.60;;;11.00;99.90;;;;;;5073698;28;20450;-82
2023/02/20 09:16:27;;;;;;;1.63;0.70;;;11.90;99.90;;;;;;5073581;28;20450;-83
2023/02/20 09:18:54;;;;;;;0.40;0.40;;;13.00;99.90;;;;;;5073165;28;20838;-82
2023/02/20 09:21:21;;;;;;;0.53;0.50;;;14.00;99.90;;;;;;5073606;28;20472;-82
2023/02/20 09:23:48;;;;;;;1.13;0.50;;;15.10;99.90;;;;;;5073523;28;20461;-83
2023/02/20 09:26:15;;;;;;;7.80;0.53;;;16.20;99.90;;;;;;5074210;28;20792;-83
2023/02/20 09:28:42;;;;;;;0.53;0.50;;;17.50;99.90;;;;;;5073440;28;20487;-83
2023/02/20 09:31:10;;;;;;;0.50;0.40;;;18.80;99.70;;;;;;5073063;28;21004;-82
2023/02/20 09:33:38;;;;;;;0.93;0.57;;;20.00;95.30;;;;;;5073104;28;20445;-82
2023/02/20 09:36:05;;;;;;;3.00;0.70;;;20.80;90.90;;;;;;5073328;28;20490;-82
2023/02/20 09:38:32;;;;;;;0.60;0.50;;;21.20;84.50;;;;;;5072757;28;20489;-82
2023/02/20 09:41:00;;;;;;;0.90;0.90;;;22.30;78.40;;;;;;5073381;28;20448;-82
2023/02/20 09:43:39;;;;;;;1.20;0.60;;;23.10;78.30;;;;;;5072966;28;20856;-82
2023/02/20 09:46:12;;;;;;;1.53;0.77;;;24.00;72.20;;;;;;5073020;28;20440;-83
2023/02/20 09:48:58;;;;;;;1.17;0.60;;;24.20;66.70;;;;;;5072981;28;20472;-82
2023/02/20 09:51:28;;;;;;;0.90;0.67;;;24.30;66.20;;;;;;5073323;28;20429;-82
2023/02/20 09:53:58;;;;;;;0.50;0.50;;;24.50;64.60;;;;;;5073219;28;20256;-83
2023/02/20 09:56:30;;;;;;;4.47;0.70;;;24.30;62.20;;;;;;5074158;28;20452;-82
2023/02/20 09:59:02;;;;;;;0.75;0.50;;;23.50;60.20;;;;;;5073210;28;20207;-82
2023/02/20 10:01:32;;;;;;;1.40;0.70;;;23.50;61.70;;;;;;5073265;28;20191;-83
2023/02/20 10:04:02;;;;;;;0.70;0.70;;;23.40;61.90;;;;;;5073558;28;20206;-83
2023/02/20 10:06:31;;;;;;;0.60;0.60;;;23.20;60.70;;;;;;5073811;28;20226;-83
2023/02/20 10:08:58;;;;;;;1.37;0.70;;;22.60;61.50;;;;;;5073242;28;20441;-83
2023/02/20 10:11:53;;;;;;;5.13;1.00;;;21.50;62.20;;;;;;5073304;28;20474;-83
2023/02/20 10:14:34;;;;;;;1.80;0.60;;;20.30;65.70;;;;;;5067899;28;20452;-83
2023/02/20 10:17:15;;;;;;;3.27;0.73;;;18.80;67.90;;;;;;5072986;28;20860;-83
2023/02/20 10:19:50;;;;;;;1.13;0.93;;;17.60;70.90;;;;;;5072891;28;20465;-83
2023/02/20 10:22:21;;;;;;;1.20;0.73;;;16.80;74.60;;;;;;5072977;28;20445;-82
2023/02/20 10:25:08;;;;;;;1.13;0.50;;;16.60;75.70;;;;;;5085405;28;20434;-81
2023/02/20 10:27:48;;;;;;;2.73;0.50;;;16.90;76.60;;;;;;5095902;28;20492;-82
2023/02/20 10:30:22;;;;;;;0.87;0.40;;;17.70;74.70;;;;;;5095339;28;20433;-82
2023/02/20 10:32:56;;;;;;;1.03;0.47;;;19.00;73.00;;;;;;5086525;28;20433;-83
2023/02/20 10:35:26;;;;;;;1.17;0.50;;;20.70;69.70;;;;;;5072571;28;20441;-83
2023/02/20 10:37:58;;;;;;;7.23;0.50;;;22.40;66.20;;;;;;5072452;28;20492;-82
2023/02/20 10:40:29;;;;;;;0.60;0.50;;;23.80;63.00;;;;;;5072870;28;20475;-83
2023/02/20 10:43:02;;;;;;;0.77;0.70;;;24.80;57.70;;;;;;5073466;28;20947;-83
2023/02/20 10:45:37;;;;;;;0.47;0.47;;;25.40;56.80;;;;;;5073000;28;20191;-83
2023/02/20 10:48:07;;;;;;;0.75;0.50;;;26.10;55.70;;;;;;5072977;28;20233;-83
2023/02/20 10:50:39;;;;;;;0.57;0.57;;;26.60;53.90;;;;;;5073128;28;20195;-83
2023/02/20 10:53:16;;;;;;;0.57;0.55;;;26.70;53.80;;;;;;5072759;28;20212;-83
2023/02/20 10:55:51;;;;;;;0.50;0.50;;;26.70;52.00;;;;;;5075968;28;20634;-83
2023/02/20 10:58:22;;;;;;;1.90;0.63;;;26.80;52.60;;;;;;5076056;28;20229;-83
2023/02/20 11:00:54;;;;;;;6.20;0.68;;;26.90;50.90;;;;;;5076046;28;20548;-83
2023/02/20 11:03:27;;;;;;;0.57;0.45;;;26.10;51.70;;;;;;5076107;28;20190;-83
2023/02/20 11:05:56;;;;;;;0.75;0.60;;;26.00;51.70;;;;;;5076270;28;20186;-83
2023/02/20 11:08:26;;;;;;;0.50;0.50;;;26.00;51.80;;;;;;5075960;28;20222;-82
2023/02/20 11:10:59;;;;;;;0.50;0.43;;;25.90;52.00;;;;;;5076059;28;20199;-83
2023/02/20 11:13:26;;;;;;;0.60;0.60;;;25.40;52.30;;;;;;5076087;28;20191;-83
2023/02/20 11:15:57;;;;;;;0.88;0.40;;;24.50;53.10;;;;;;5075935;28;20194;-83
2023/02/20 11:18:30;;;;;;;1.00;0.50;;;23.20;54.30;;;;;;5075892;28;20254;-83
2023/02/20 11:20:57;;;;;;;0.70;0.60;;;21.80;55.90;;;;;;5075792;28;20207;-83
2023/02/20 11:23:41;;;;;;;0.60;0.37;;;20.50;57.60;;;;;;5076035;28;20202;-83
2023/02/20 11:26:31;;;;;;;0.50;0.50;;;19.40;59.40;;;;;;5075589;28;20445;-83
2023/02/20 11:29:03;;;;;;;0.50;0.50;;;18.50;61.30;;;;;;5071443;28;20533;-83
2023/02/20 11:31:31;;;;;;;0.40;0.37;;;17.80;62.10;;;;;;5075070;28;20433;-82
2023/02/20 11:34:02;;;;;;;0.40;0.30;;;17.50;64.10;;;;;;5075282;28;20452;-84
2023/02/20 11:36:36;;;;;;;0.87;0.30;;;17.00;63.50;;;;;;5075051;28;20476;-82
2023/02/20 11:39:13;;;;;;;1.77;0.40;;;16.60;64.30;;;;;;5075189;28;20539;-83
2023/02/20 11:41:40;;;;;;;0.40;0.30;;;16.30;66.80;;;;;;5075053;28;20921;-83
2023/02/20 11:44:18;;;;;;;0.43;0.37;;;16.10;67.00;;;;;;5075389;28;20446;-83
2023/02/20 11:46:46;;;;;;;0.40;0.30;;;16.10;66.30;;;;;;5074991;28;20469;-83
2023/02/20 11:49:23;;;;;;;0.40;0.40;;;16.00;67.60;;;;;;5074975;28;20449;-83
2023/02/20 11:51:50;;;;;;;1.83;0.30;;;15.80;68.10;;;;;;5074977;28;20966;-83
2023/02/20 11:54:20;;;;;;;1.13;0.40;;;15.80;69.30;;;;;;5075187;28;20454;-83
2023/02/20 11:56:59;;;;;;;0.40;0.30;;;15.70;68.60;;;;;;5075123;28;20547;-82
2023/02/20 11:59:31;;;;;;;0.83;0.30;;;15.70;69.40;;;;;;5075811;28;20572;-83
2023/02/20 12:02:21;;;;;;;1.10;0.40;;;15.50;68.00;;;;;;5075092;28;20426;-83
2023/02/20 12:05:12;;;;;;;0.30;0.30;;;15.50;68.80;;;;;;5074825;28;20480;-82
2023/02/20 12:07:42;;;;;;;0.57;0.30;;;15.40;68.50;;;;;;5074889;28;20469;-83
2023/02/20 12:10:26;;;;;;;0.40;0.40;;;15.20;70.00;;;;;;5074582;28;20909;-82
2023/02/20 12:12:54;;;;;;;0.30;0.30;;;15.10;70.60;;;;;;5074549;28;20811;-78
2023/02/20 12:15:22;;;;;;;0.40;0.30;;;15.10;71.80;;;;;;5074474;28;20452;-79
2023/02/20 12:18:06;;;;;;;0.50;0.40;;;15.10;70.50;;;;;;5074627;28;20469;-79
2023/02/20 12:20:37;;;;;;;1.23;0.40;;;15.10;70.90;;;;;;5074613;28;20458;-79
2023/02/20 12:23:16;;;;;;;0.40;0.40;;;15.00;70.20;;;;;;5074677;28;20437;-79
2023/02/20 12:26:01;;;;;;;0.63;0.30;;;14.90;71.00;;;;;;5074644;28;20429;-79
2023/02/20 12:28:35;;;;;;;1.17;0.30;;;14.80;71.40;;;;;;5074483;28;20871;-79
2023/02/20 12:31:11;;;;;;;1.50;0.30;;;14.70;70.50;;;;;;5074499;28;20433;-79
2023/02/20 12:34:00;;;;;;;0.40;0.30;;;14.60;71.70;;;;;;5074453;28;20425;-79
2023/02/20 12:36:32;;;;;;;0.50;0.30;;;14.60;72.60;;;;;;5074150;28;20487;-79
2023/02/20 12:39:06;;;;;;;0.40;0.30;;;14.50;72.20;;;;;;5074278;28;20837;-79
2023/02/20 12:41:50;;;;;;;0.40;0.30;;;14.40;70.40;;;;;;5074295;28;20550;-79
2023/02/20 12:44:28;;;;;;;0.87;0.40;;;14.30;70.80;;;;;;5074764;28;20433;-79
2023/02/20 12:47:03;;;;;;;0.43;0.40;;;14.30;71.50;;;;;;5073950;28;20495;-79
2023/02/20 12:49:50;;;;;;;1.43;0.33;;;14.30;70.20;;;;;;5073862;28;20432;-79
2023/02/20 12:52:33;;;;;;;0.60;0.30;;;14.30;71.50;;;;;;5074081;28;20437;-79
2023/02/20 12:55:11;;;;;;;0.30;0.30;;;14.30;69.50;;;;;;5074041;28;20436;-79
2023/02/20 12:57:45;;;;;;;0.30;0.30;;;14.20;69.80;;;;;;5073954;28;20901;-79
2023/02/20 13:00:25;;;;;;;0.50;0.40;;;14.20;70.50;;;;;;5073878;28;20470;-79
2023/02/20 13:02:59;;;;;;;0.40;0.30;;;14.10;70.70;;;;;;5073567;28;20901;-79
2023/02/20 13:05:28;;;;;;;0.30;0.30;;;14.10;70.90;;;;;;5073849;28;20499;-79
2023/02/20 13:08:00;;;;;;;0.40;0.30;;;14.00;71.60;;;;;;5073751;28;20469;-79
2023/02/20 13:10:30;;;;;;;0.30;0.30;;;14.00;71.40;;;;;;5073709;28;20437;-79
2023/02/20 13:12:57;;;;;;;0.40;0.30;;;14.00;71.10;;;;;;5074805;28;20445;-79
2023/02/20 13:15:37;;;;;;;0.30;0.30;;;14.10;70.10;;;;;;5073369;28;20893;-79
2023/02/20 13:18:16;;;;;;;0.30;0.30;;;14.00;71.00;;;;;;5073025;28;20870;-79
2023/02/20 13:20:47;;;;;;;0.40;0.33;;;14.00;70.70;;;;;;5073188;28;20995;-79
2023/02/20 13:23:31;;;;;;;0.40;0.30;;;13.90;69.70;;;;;;5073323;28;20946;-79